»·PEaware :: ASA180 KSFO-KLAX

ASA180 :: KSFO-KLAX

FLIGHT INFORMATION

Flight Status: Arrived
Operator:
Alaska Airlines
More flights by this operator :: More flights under this callsign
Pilot: Etienne B. (28927)
Aircraft: AIRBUS A320
(A320)
More flights by this aircraft type
Origin: KSFO San Francisco Intl
United States
Destination: KLAX Los Angeles Intl
United States
More flights between these airports :: More routes between these airports
Route: SSTIK4 EBAYE BURGL IRNMN2
File this flight plan on PilotEdge
Remarks: RMK / SIMBRIEF
Altitude:
(Current/Filed)
35,000ft
Speed:
(Current/Filed)
437kts
Departed: 16-Apr-20 03:40 PM
Arrived: 16-Apr-20 04:41 PM
Distance/Time
Traveled:
293nm/1:00
Distance/Time
To Go:
Arrived

Flight Plot

Page will automatically refresh every two minutes.

Flight plan parsing failed; only flown route is shown


Map Options




Map Legend


Flown Route
Filed Route
Departure Airport
Arrival Airport
Navaid (VOR, NDB)
Fix

Horizontal Profiles

Position Reports

Time Latitude Longitude Heading Altitude Ground
Speed
16-Apr-20 15:20 37.617714 -122.382849 134 32ft 0kts
16-Apr-20 15:21 37.617714 -122.382849 134 32ft 0kts
16-Apr-20 15:22 37.617714 -122.382849 134 32ft 0kts
16-Apr-20 15:23 37.617714 -122.382849 134 32ft 0kts
16-Apr-20 15:24 37.617714 -122.382849 134 32ft 0kts
16-Apr-20 15:25 37.617714 -122.382849 134 32ft 0kts
16-Apr-20 15:26 37.617714 -122.382849 134 32ft 0kts
16-Apr-20 15:27 37.617714 -122.382849 134 32ft 0kts
16-Apr-20 15:28 37.617714 -122.382849 134 32ft 0kts
16-Apr-20 15:29 37.617714 -122.382849 134 32ft 0kts
16-Apr-20 15:30 37.617786 -122.382941 134 32ft 2kts
16-Apr-20 15:31 37.618096 -122.383471 81 32ft 2kts
16-Apr-20 15:32 37.618061 -122.383603 68 32ft 0kts
16-Apr-20 15:33 37.618283 -122.382988 56 32ft 7kts
16-Apr-20 15:34 37.619452 -122.381679 110 32ft 2kts
16-Apr-20 15:35 37.616804 -122.379544 197 30ft 20kts
16-Apr-20 15:36 37.611448 -122.383139 211 32ft 23kts
16-Apr-20 15:37 37.608526 -122.384008 117 31ft 0kts
16-Apr-20 15:38 37.608526 -122.384008 117 31ft 0kts
16-Apr-20 15:39 37.609693 -122.381729 27 30ft 44kts
16-Apr-20 15:40 37.648144 -122.360903 7 2060ft 181kts
16-Apr-20 15:41 37.691834 -122.375878 283 5201ft 185kts
16-Apr-20 15:42 37.653012 -122.421661 205 7806ft 258kts
16-Apr-20 15:43 37.579161 -122.447948 191 10452ft 298kts
16-Apr-20 15:44 37.488580 -122.459782 158 11840ft 361kts
16-Apr-20 15:45 37.414955 -122.373434 132 14278ft 371kts
16-Apr-20 15:46 37.352018 -122.287341 132 16205ft 383kts
16-Apr-20 15:47 37.291131 -122.204788 132 17974ft 388kts
16-Apr-20 15:48 37.217513 -122.105304 133 19777ft 398kts
16-Apr-20 15:49 37.141966 -122.003571 133 21422ft 407kts
16-Apr-20 15:50 37.064546 -121.899643 134 22957ft 414kts
16-Apr-20 15:51 36.985005 -121.793252 136 24037ft 430kts
16-Apr-20 15:52 36.902052 -121.682644 136 25118ft 442kts
16-Apr-20 15:53 36.817582 -121.570358 136 26315ft 450kts
16-Apr-20 15:54 36.731313 -121.456109 137 27404ft 457kts
16-Apr-20 15:55 36.645082 -121.342307 137 28405ft 463kts
16-Apr-20 15:56 36.556970 -121.226397 138 29676ft 460kts
16-Apr-20 15:57 36.469351 -121.111601 138 30687ft 463kts
16-Apr-20 15:58 36.382494 -120.991490 135 31360ft 475kts
16-Apr-20 15:59 36.295741 -120.866938 135 32292ft 478kts
16-Apr-20 16:00 36.208936 -120.742772 135 33302ft 477kts
16-Apr-20 16:01 36.121934 -120.618812 135 34256ft 475kts
16-Apr-20 16:02 36.035989 -120.496729 135 34961ft 466kts
16-Apr-20 16:03 35.951423 -120.377102 135 34947ft 462kts
16-Apr-20 16:04 35.866335 -120.261709 145 34958ft 458kts
16-Apr-20 16:05 35.760925 -120.179247 153 34964ft 452kts
16-Apr-20 16:06 35.654117 -120.098843 153 34969ft 451kts
16-Apr-20 16:07 35.547604 -120.018449 153 34576ft 450kts
16-Apr-20 16:08 35.440595 -119.937984 153 33613ft 453kts
16-Apr-20 16:09 35.333420 -119.857634 153 32652ft 454kts
16-Apr-20 16:10 35.229074 -119.768344 147 31700ft 460kts
16-Apr-20 16:11 35.127588 -119.673608 147 30743ft 461kts
16-Apr-20 16:12 35.025868 -119.578955 146 29634ft 459kts
16-Apr-20 16:13 34.924178 -119.484626 146 26867ft 460kts
16-Apr-20 16:14 34.825192 -119.395574 147 25062ft 435kts
16-Apr-20 16:15 34.735048 -119.315005 148 24086ft 384kts
16-Apr-20 16:16 34.650659 -119.241550 148 22314ft 372kts
16-Apr-20 16:17 34.567688 -119.170087 147 20489ft 361kts
16-Apr-20 16:18 34.487739 -119.099466 146 18693ft 351kts
16-Apr-20 16:19 34.410047 -119.031204 146 16928ft 341kts
16-Apr-20 16:20 34.333832 -118.965198 145 15196ft 333kts
16-Apr-20 16:21 34.260947 -118.898895 144 13500ft 325kts
16-Apr-20 16:22 34.190985 -118.834627 144 12415ft 299kts
16-Apr-20 16:23 34.130032 -118.772641 139 11419ft 282kts
16-Apr-20 16:24 34.072310 -118.709957 139 10148ft 275kts
16-Apr-20 16:25 34.027250 -118.640812 97 9119ft 267kts
16-Apr-20 16:26 34.019175 -118.553454 97 7991ft 262kts
16-Apr-20 16:27 34.022514 -118.465944 82 6628ft 269kts
16-Apr-20 16:28 34.033172 -118.381310 82 5307ft 257kts
16-Apr-20 16:29 34.043045 -118.307711 82 4048ft 238kts
16-Apr-20 16:30 34.053796 -118.232201 82 2644ft 232kts
16-Apr-20 16:31 34.064732 -118.157203 82 2607ft 227kts
16-Apr-20 16:32 34.048260 -118.095230 168 2615ft 214kts
16-Apr-20 16:33 33.989928 -118.084253 176 2610ft 213kts
16-Apr-20 16:34 33.968173 -118.134857 291 2618ft 221kts
16-Apr-20 16:35 33.972974 -118.200840 260 2613ft 195kts
16-Apr-20 16:36 33.967260 -118.254498 260 2404ft 146kts
16-Apr-20 16:37 33.962601 -118.301950 259 1853ft 142kts
16-Apr-20 16:38 33.957689 -118.348342 259 1049ft 139kts
16-Apr-20 16:39 33.952910 -118.394151 261 310ft 138kts
16-Apr-20 16:40 33.949901 -118.418388 235 126ft 0kts
16-Apr-20 16:41 33.949112 -118.419694 232 125ft 7kts
16-Apr-20 16:42 33.947457 -118.422291 208 123ft 0kts
16-Apr-20 16:43 33.947314 -118.422389 204 122ft 4kts
16-Apr-20 16:44 33.947088 -118.419699 82 124ft 16kts
16-Apr-20 16:45 33.947916 -118.412841 81 128ft 22kts
16-Apr-20 16:46 33.947656 -118.408921 200 128ft 7kts
16-Apr-20 16:47 33.946379 -118.408761 100 128ft 1kts

Navigation Log

Ident Type
Flight plan parsing failed, navigation log unavailable